Time;durP1;ratioP1;P1;durP2;ratioP2;P2;SDS_P1;SDS_P2;PMS_P1;PMS_P2;Temp;Humidity;BMP_temperature;BMP_pressure;BME280_temperature;BME280_humidity;BME280_pressure;Samples;Min_cycle;Max_cycle;Signal;HPM_P1;HPM_P2
2022/09/09 00:02:12;;;;;;;1.48;0.80;;;;;;;17.03;80.79;100794.63;4954285;28;20125;-70
2022/09/09 00:04:39;;;;;;;3.08;1.15;;;;;;;16.92;81.65;100804.16;4956104;28;20034;-70
2022/09/09 00:07:24;;;;;;;3.15;1.10;;;;;;;17.00;80.40;100797.25;4954995;28;20102;-70
2022/09/09 00:10:02;;;;;;;3.88;1.20;;;;;;;16.92;81.59;100791.16;4956086;28;20596;-70
2022/09/09 00:13:05;;;;;;;4.82;1.10;;;;;;;17.03;80.03;100786.84;4960378;28;20538;-70
2022/09/09 00:15:43;;;;;;;3.28;1.35;;;;;;;16.96;80.38;100784.25;4945179;28;20069;-77
2022/09/09 00:18:24;;;;;;;1.50;1.07;;;;;;;16.95;80.32;100783.38;4978623;28;20121;-77
2022/09/09 00:20:58;;;;;;;3.28;1.05;;;;;;;16.90;80.63;100787.72;4993857;28;20280;-77
2022/09/09 00:23:33;;;;;;;3.08;1.20;;;;;;;16.87;80.54;100777.34;4998510;28;20439;-77
2022/09/09 00:26:23;;;;;;;3.65;1.20;;;;;;;16.80;80.54;100776.44;4996906;28;20427;-78
2022/09/09 00:29:09;;;;;;;3.70;1.02;;;;;;;16.81;80.68;100778.19;4977249;28;20033;-77
2022/09/09 00:31:37;;;;;;;1.92;1.08;;;;;;;16.75;80.44;100772.13;4996517;28;20034;-78
2022/09/09 00:34:13;;;;;;;7.43;1.17;;;;;;;16.81;80.40;100777.31;4995321;28;20077;-77
2022/09/09 00:36:40;;;;;;;3.80;1.10;;;;;;;16.74;80.06;100781.63;4993567;28;20030;-78
2022/09/09 00:39:08;;;;;;;3.15;1.00;;;;;;;16.74;80.31;100773.81;4996423;28;20021;-77
2022/09/09 00:41:59;;;;;;;2.95;1.17;;;;;;;16.76;80.12;100774.72;4993535;28;20038;-77
2022/09/09 00:44:27;;;;;;;2.03;0.80;;;;;;;16.70;80.19;100769.50;4993152;28;20030;-78
2022/09/09 00:47:30;;;;;;;2.00;0.98;;;;;;;16.78;80.00;100766.91;4994733;28;20041;-78
2022/09/09 00:50:16;;;;;;;1.83;1.00;;;;;;;16.74;80.54;100762.56;4993572;28;20029;-78
2022/09/09 00:53:01;;;;;;;5.10;1.02;;;;;;;16.69;80.60;100759.09;4999977;28;20041;-78
2022/09/09 00:55:48;;;;;;;2.90;0.90;;;;;;;16.67;80.45;100759.06;4981386;28;21607;-77
2022/09/09 00:58:13;;;;;;;3.20;1.00;;;;;;;16.58;80.44;100749.56;4999582;28;20033;-77
2022/09/09 01:00:48;;;;;;;3.58;1.05;;;;;;;16.58;80.63;100751.28;4982320;28;20400;-77
2022/09/09 01:03:17;;;;;;;2.88;1.13;;;;;;;16.58;80.47;100754.75;4996642;28;20400;-77
2022/09/09 01:06:11;;;;;;;1.70;0.95;;;;;;;16.63;80.13;100747.84;4999802;28;20523;-77
2022/09/09 01:08:46;;;;;;;3.35;1.13;;;;;;;16.60;80.62;100749.56;5001579;28;20033;-77
2022/09/09 01:11:25;;;;;;;3.83;1.02;;;;;;;16.56;80.66;100751.28;5018685;28;20511;-77
2022/09/09 01:14:01;;;;;;;1.83;1.00;;;;;;;16.56;80.60;100751.28;5021901;28;20025;-78
2022/09/09 01:16:29;;;;;;;3.85;0.90;;;;;;;16.48;81.60;100763.38;5018277;28;20025;-77
2022/09/09 01:18:57;;;;;;;3.53;1.23;;;;;;;16.47;81.19;100743.47;5015588;28;20120;-77
2022/09/09 01:21:39;;;;;;;4.95;1.20;;;;;;;16.51;80.66;100750.41;5016946;28;21127;-77
2022/09/09 01:24:16;;;;;;;2.45;1.00;;;;;;;16.52;80.98;100759.94;5015651;28;20033;-77
2022/09/09 01:26:44;;;;;;;3.40;1.15;;;;;;;16.51;81.07;100758.19;5016837;28;20124;-77
2022/09/09 01:29:13;;;;;;;4.35;1.10;;;;;;;16.53;81.47;100758.19;5020049;28;20021;-77
2022/09/09 01:31:52;;;;;;;2.53;1.00;;;;;;;16.49;80.95;100759.03;5020142;28;20068;-77
2022/09/09 01:34:21;;;;;;;4.32;0.93;;;;;;;16.50;81.22;100751.28;5019132;28;20079;-77
2022/09/09 01:37:00;;;;;;;2.45;1.10;;;;;;;16.49;81.69;100754.72;5017088;28;20037;-77
2022/09/09 01:39:26;;;;;;;4.85;1.27;;;;;;;16.45;81.27;100750.41;5019858;28;20108;-77
2022/09/09 01:41:52;;;;;;;3.25;1.45;;;;;;;16.41;81.50;100746.06;5017964;28;20072;-77
2022/09/09 01:44:19;;;;;;;4.07;1.10;;;;;;;16.37;81.57;100744.31;5017497;28;21083;-77
2022/09/09 01:46:44;;;;;;;2.50;1.13;;;;;;;16.34;81.47;100734.81;5017208;28;20025;-77
2022/09/09 01:49:10;;;;;;;3.65;1.08;;;;;;;16.39;81.17;100742.59;5017698;28;20037;-76
2022/09/09 01:51:39;;;;;;;3.65;1.20;;;;;;;16.40;81.45;100743.47;5017622;28;20037;-77
2022/09/09 01:54:06;;;;;;;2.50;1.10;;;;;;;16.36;81.72;100742.59;5002056;28;20044;-77
2022/09/09 01:56:50;;;;;;;5.47;1.10;;;;;;;16.37;81.30;100741.72;5001042;28;20048;-77
2022/09/09 01:59:41;;;;;;;2.55;1.20;;;;;;;16.39;81.70;100736.56;5016588;28;20071;-77
2022/09/09 02:02:16;;;;;;;2.47;1.00;;;;;;;16.29;82.13;100728.72;5014790;28;20060;-77
2022/09/09 02:04:45;;;;;;;3.20;1.10;;;;;;;16.30;82.01;100727.00;5018220;28;20029;-77
2022/09/09 02:07:41;;;;;;;4.28;1.00;;;;;;;16.37;81.79;100736.53;5017192;28;20049;-77
2022/09/09 02:10:16;;;;;;;3.53;1.13;;;;;;;16.27;81.99;100721.81;4982654;28;20554;-77
2022/09/09 02:12:46;;;;;;;4.70;1.20;;;;;;;16.32;82.22;100733.06;5015378;28;20022;-77
2022/09/09 02:15:39;;;;;;;4.35;1.42;;;;;;;16.36;81.94;100722.69;5022225;28;20029;-77
2022/09/09 02:18:08;;;;;;;4.35;1.25;;;;;;;16.23;82.59;100718.34;5018397;28;20389;-76
2022/09/09 02:20:38;;;;;;;4.57;1.30;;;;;;;16.25;82.33;100718.34;5015552;28;20025;-77
2022/09/09 02:23:05;;;;;;;4.97;1.30;;;;;;;16.17;82.70;100714.84;5018519;28;20083;-77
2022/09/09 02:25:30;;;;;;;3.42;1.15;;;;;;;16.23;82.62;100720.06;4970331;28;20038;-77
2022/09/09 02:27:58;;;;;;;3.85;1.33;;;;;;;16.20;82.44;100714.84;5018183;28;20045;-77
2022/09/09 02:30:29;;;;;;;4.80;1.40;;;;;;;16.28;82.42;100713.16;5015563;28;20029;-77
2022/09/09 02:32:57;;;;;;;2.53;1.30;;;;;;;16.26;82.42;100714.88;5015603;28;20025;-77
2022/09/09 02:35:26;;;;;;;4.57;1.38;;;;;;;16.23;82.49;100715.75;5018492;28;20026;-77
2022/09/09 02:37:55;;;;;;;3.85;1.40;;;;;;;16.23;82.93;100720.06;5014803;28;20507;-77
2022/09/09 02:40:21;;;;;;;3.25;1.38;;;;;;;16.18;82.18;100720.03;5017679;28;20800;-77
2022/09/09 02:42:48;;;;;;;4.00;1.30;;;;;;;16.16;82.51;100723.50;5016515;28;20068;-77
2022/09/09 02:45:18;;;;;;;3.20;1.40;;;;;;;16.16;83.07;100716.59;5018465;28;20038;-77
2022/09/09 02:48:23;;;;;;;4.53;1.42;;;;;;;16.23;82.42;100714.88;5017337;28;20025;-77
2022/09/09 02:51:10;;;;;;;4.65;1.42;;;;;;;16.19;82.69;100711.41;4998508;28;20046;-76
2022/09/09 02:53:41;;;;;;;4.47;1.58;;;;;;;16.14;83.03;100715.72;5017999;28;20036;-76
2022/09/09 02:56:18;;;;;;;5.22;1.58;;;;;;;16.23;82.83;100728.72;5018643;28;20491;-77
2022/09/09 02:58:44;;;;;;;5.15;1.48;;;;;;;16.15;83.10;100721.78;5015178;28;20037;-77
2022/09/09 03:01:09;;;;;;;5.10;1.92;;;;;;;16.08;83.24;100726.09;5013932;28;20487;-77
2022/09/09 03:03:35;;;;;;;4.53;1.50;;;;;;;16.09;83.12;100722.63;5013656;28;20029;-77
2022/09/09 03:06:01;;;;;;;6.72;2.00;;;;;;;16.07;83.85;100730.38;4993389;28;20073;-77
2022/09/09 03:08:27;;;;;;;3.63;1.40;;;;;;;16.14;83.00;100725.22;4996540;28;20045;-77
2022/09/09 03:10:54;;;;;;;3.03;1.40;;;;;;;16.08;83.24;100728.69;4996813;28;20429;-76
2022/09/09 03:13:19;;;;;;;4.97;1.83;;;;;;;16.06;83.23;100714.81;4994885;28;20080;-77
2022/09/09 03:15:45;;;;;;;5.70;1.85;;;;;;;16.06;83.37;100723.47;4997881;28;20116;-77
2022/09/09 03:18:10;;;;;;;5.75;1.60;;;;;;;16.05;83.50;100732.13;4975813;28;20080;-77
2022/09/09 03:20:36;;;;;;;4.50;1.60;;;;;;;16.05;83.18;100726.06;4994004;28;20026;-77
2022/09/09 03:23:02;;;;;;;6.05;1.67;;;;;;;16.08;83.25;100726.09;4992186;28;20495;-76
2022/09/09 03:25:28;;;;;;;4.32;1.80;;;;;;;16.06;83.89;100725.19;4995072;28;20026;-77
2022/09/09 03:27:54;;;;;;;5.57;1.63;;;;;;;16.02;84.09;100728.66;4996441;28;20102;-77
2022/09/09 03:30:22;;;;;;;6.40;1.90;;;;;;;16.04;83.77;100729.53;4996923;28;20349;-77
2022/09/09 03:32:47;;;;;;;6.03;1.67;;;;;;;16.03;83.64;100730.38;4992581;28;20018;-77
2022/09/09 03:35:13;;;;;;;5.18;1.58;;;;;;;16.03;83.96;100735.56;4974666;28;20052;-77
2022/09/09 03:37:39;;;;;;;4.35;1.70;;;;;;;16.01;83.89;100724.31;4991893;28;20125;-76
2022/09/09 03:40:05;;;;;;;5.50;1.65;;;;;;;16.04;83.56;100732.13;4996842;28;20037;-78
2022/09/09 03:42:31;;;;;;;6.28;1.75;;;;;;;16.01;83.87;100726.91;4995836;28;20065;-79
2022/09/09 03:44:57;;;;;;;3.63;1.67;;;;;;;16.05;84.04;100726.94;4991144;28;20061;-77
2022/09/09 03:47:23;;;;;;;5.82;1.70;;;;;;;16.03;84.37;100731.25;4996000;28;20133;-77
2022/09/09 03:49:48;;;;;;;6.30;1.85;;;;;;;16.03;84.37;100728.66;4998737;28;20560;-76
2022/09/09 03:52:15;;;;;;;6.57;1.80;;;;;;;16.01;84.23;100732.09;5010843;28;20034;-77
2022/09/09 03:54:42;;;;;;;5.50;1.80;;;;;;;15.99;84.47;100720.84;5006478;28;20421;-77
2022/09/09 03:57:08;;;;;;;4.65;1.50;;;;;;;16.01;83.93;100719.97;4995350;28;20042;-77
2022/09/09 03:59:34;;;;;;;4.68;1.45;;;;;;;16.01;84.33;100719.13;4994722;28;20054;-77
2022/09/09 04:02:00;;;;;;;5.55;1.45;;;;;;;15.98;84.85;100725.19;4990542;28;20080;-76
2022/09/09 04:04:26;;;;;;;5.40;1.60;;;;;;;15.98;84.60;100716.53;4992223;28;20440;-76
2022/09/09 04:06:52;;;;;;;5.03;1.63;;;;;;;16.00;84.68;100718.25;4991940;28;20571;-77
2022/09/09 04:09:17;;;;;;;5.35;1.50;;;;;;;16.03;84.19;100712.22;4997868;28;20096;-77
2022/09/09 04:11:43;;;;;;;6.95;1.30;;;;;;;16.00;84.70;100717.41;4994006;28;20033;-77
2022/09/09 04:14:08;;;;;;;4.25;1.67;;;;;;;15.96;84.55;100711.34;4995725;28;20022;-76
2022/09/09 04:16:36;;;;;;;7.93;1.95;;;;;;;15.98;85.10;100709.63;4994692;28;20030;-76
2022/09/09 04:19:04;;;;;;;6.00;1.70;;;;;;;16.00;84.76;100700.09;4979332;28;20048;-76
2022/09/09 04:21:29;;;;;;;3.15;1.30;;;;;;;15.96;85.13;100706.16;4978551;28;20398;-77
2022/09/09 04:23:55;;;;;;;5.68;1.70;;;;;;;15.97;85.22;100712.22;4993446;28;20030;-77
2022/09/09 04:26:20;;;;;;;3.72;1.30;;;;;;;15.95;85.40;100707.00;4995776;28;20073;-76
2022/09/09 04:28:45;;;;;;;8.00;1.95;;;;;;;15.94;85.16;100712.19;5010299;28;20037;-76
2022/09/09 04:31:21;;;;;;;9.18;1.70;;;;;;;16.01;85.14;100714.78;4993673;28;20511;-76
2022/09/09 04:33:47;;;;;;;8.73;1.60;;;;;;;15.98;85.47;100708.75;4995499;28;20033;-76
2022/09/09 04:36:13;;;;;;;5.07;1.70;;;;;;;15.99;85.50;100706.16;4996477;28;20044;-77
2022/09/09 04:38:38;;;;;;;3.17;1.50;;;;;;;15.92;86.25;100703.53;4992357;28;20492;-76
2022/09/09 04:41:04;;;;;;;3.97;1.40;;;;;;;15.99;85.64;100700.97;4993971;28;20033;-76
2022/09/09 04:43:30;;;;;;;6.70;1.70;;;;;;;16.03;85.61;100701.84;4993403;28;20026;-77
2022/09/09 04:45:56;;;;;;;6.13;1.63;;;;;;;16.00;85.48;100704.44;4993960;28;20105;-75
2022/09/09 04:48:25;;;;;;;6.35;1.75;;;;;;;15.96;85.95;100695.78;4974292;28;20042;-76
2022/09/09 04:50:57;;;;;;;5.18;1.55;;;;;;;16.02;85.94;100706.19;4995889;28;20357;-76
2022/09/09 04:53:23;;;;;;;5.90;1.50;;;;;;;15.91;86.23;100697.50;4992425;28;20148;-76
2022/09/09 04:55:49;;;;;;;6.53;1.55;;;;;;;15.92;86.47;100694.03;4973956;28;20030;-77
2022/09/09 04:58:14;;;;;;;5.90;1.50;;;;;;;15.96;86.09;100692.34;5011255;28;20052;-76
2022/09/09 05:00:42;;;;;;;6.80;1.60;;;;;;;15.95;86.57;100691.44;4992705;28;20034;-76
2022/09/09 05:03:08;;;;;;;9.57;1.90;;;;;;;15.92;86.27;100688.84;4993266;28;20042;-76
2022/09/09 05:05:34;;;;;;;6.05;2.10;;;;;;;15.91;86.65;100686.25;4997472;28;20157;-77
2022/09/09 05:08:04;;;;;;;10.10;1.90;;;;;;;15.92;86.29;100694.03;4990155;28;20038;-76
2022/09/09 05:10:30;;;;;;;8.65;1.60;;;;;;;15.98;86.63;100696.66;4993556;28;20112;-79
2022/09/09 05:12:56;;;;;;;5.88;1.90;;;;;;;15.99;86.96;100695.78;4989919;28;20022;-78
2022/09/09 05:15:22;;;;;;;6.50;1.70;;;;;;;16.01;86.31;100690.59;4996750;28;20030;-78
2022/09/09 05:17:47;;;;;;;8.02;1.65;;;;;;;16.01;86.54;100691.47;4992527;28;20034;-78
2022/09/09 05:20:13;;;;;;;8.00;1.65;;;;;;;15.95;86.73;100685.38;4994726;28;20592;-78
2022/09/09 05:22:38;;;;;;;4.78;1.58;;;;;;;16.02;86.93;100688.03;4996205;28;20391;-85
2022/09/09 05:25:04;;;;;;;10.73;1.80;;;;;;;16.05;87.17;100682.84;4982140;28;20101;-81
2022/09/09 05:27:31;;;;;;;7.32;1.67;;;;;;;16.04;87.20;100686.28;4996504;28;20029;-73
2022/09/09 05:29:57;;;;;;;8.70;1.58;;;;;;;16.04;87.06;100680.25;4993979;28;20490;-74
2022/09/09 05:32:22;;;;;;;5.32;1.40;;;;;;;16.06;86.82;100676.78;4996911;28;20034;-74
2022/09/09 05:34:48;;;;;;;6.68;1.45;;;;;;;16.14;87.00;100673.34;4996191;28;20042;-73
2022/09/09 05:37:13;;;;;;;7.97;1.50;;;;;;;16.13;86.88;100677.66;4999191;28;20041;-74
2022/09/09 05:39:39;;;;;;;5.13;1.48;;;;;;;16.20;86.78;100675.94;5002600;28;20117;-74
2022/09/09 05:42:05;;;;;;;9.20;1.80;;;;;;;16.19;86.90;100671.63;5000325;28;20064;-74
2022/09/09 05:44:30;;;;;;;7.53;1.50;;;;;;;16.21;87.07;100678.56;5005735;28;20034;-74
2022/09/09 05:46:57;;;;;;;7.70;1.67;;;;;;;16.14;87.46;100679.41;4987484;28;20018;-74
2022/09/09 05:49:23;;;;;;;9.77;1.75;;;;;;;16.19;87.15;100690.66;4996981;28;20153;-74
2022/09/09 05:51:50;;;;;;;8.18;1.60;;;;;;;16.23;86.82;100691.53;5002334;28;20830;-74
2022/09/09 05:54:15;;;;;;;9.15;1.80;;;;;;;16.25;87.25;100692.38;5004510;28;20030;-74
2022/09/09 05:56:41;;;;;;;7.85;1.70;;;;;;;16.29;87.22;100695.00;4995099;28;20547;-74
2022/09/09 05:59:07;;;;;;;9.52;1.95;;;;;;;16.34;87.90;100701.06;5000450;28;20038;-74
2022/09/09 06:01:35;;;;;;;12.48;1.80;;;;;;;16.40;87.24;100701.94;5003601;28;20034;-74
2022/09/09 06:04:01;;;;;;;8.90;1.55;;;;;;;16.41;86.91;100707.13;5000297;28;20029;-75
2022/09/09 06:06:36;;;;;;;9.27;1.98;;;;;;;16.43;87.07;100700.22;5011734;28;20046;-75
2022/09/09 06:09:03;;;;;;;9.50;1.92;;;;;;;16.46;87.17;100710.59;5020196;28;20043;-75
2022/09/09 06:11:30;;;;;;;10.15;1.92;;;;;;;16.50;87.51;100707.16;5018948;28;20025;-74
2022/09/09 06:13:57;;;;;;;6.72;1.67;;;;;;;16.52;87.25;100699.38;5019723;28;20076;-73
2022/09/09 06:16:25;;;;;;;5.57;1.30;;;;;;;16.57;87.16;100701.09;5013475;28;20029;-74
2022/09/09 06:18:51;;;;;;;9.77;1.80;;;;;;;16.64;87.89;100701.97;5018800;28;20043;-74
2022/09/09 06:21:19;;;;;;;13.82;2.88;;;;;;;16.68;87.50;100703.69;5021938;28;20400;-73
2022/09/09 06:23:45;;;;;;;7.55;1.58;;;;;;;16.76;87.28;100706.34;5021220;28;20022;-72
2022/09/09 06:26:19;;;;;;;7.68;1.58;;;;;;;16.77;87.80;100700.28;5002280;28;20488;-72
2022/09/09 06:28:47;;;;;;;5.53;1.67;;;;;;;16.84;87.49;100697.69;5020275;28;20030;-73
2022/09/09 06:31:14;;;;;;;6.90;1.50;;;;;;;16.90;87.16;100699.41;5018862;28;20061;-73
2022/09/09 06:33:41;;;;;;;7.63;1.80;;;;;;;16.91;87.55;100698.53;5016956;28;20065;-73
2022/09/09 06:36:21;;;;;;;8.00;1.90;;;;;;;16.92;87.34;100704.59;5023420;28;20028;-73
2022/09/09 06:38:47;;;;;;;10.20;1.70;;;;;;;16.88;87.21;100706.34;5020026;28;20033;-73
2022/09/09 06:41:15;;;;;;;10.75;1.83;;;;;;;16.88;86.75;100703.75;5019295;28;20587;-73
2022/09/09 06:43:41;;;;;;;6.88;1.75;;;;;;;16.86;87.29;100702.84;5019687;28;20124;-73
2022/09/09 06:46:10;;;;;;;9.90;1.80;;;;;;;16.87;86.50;100704.63;5018531;28;20092;-74
2022/09/09 06:48:36;;;;;;;9.25;2.00;;;;;;;16.93;87.25;100699.41;5016632;28;22077;-74
2022/09/09 06:51:14;;;;;;;8.40;1.77;;;;;;;16.99;87.01;100699.41;5018562;28;20031;-74
2022/09/09 06:53:44;;;;;;;6.90;1.67;;;;;;;17.04;86.67;100701.97;4999671;28;20044;-73
2022/09/09 06:56:09;;;;;;;9.57;1.63;;;;;;;16.99;87.14;100694.22;4999818;28;20124;-72
2022/09/09 06:58:35;;;;;;;11.23;2.17;;;;;;;17.10;85.48;100697.66;5016548;28;20096;-73
2022/09/09 07:01:05;;;;;;;6.75;1.63;;;;;;;17.20;85.24;100697.66;5017125;28;20822;-73
2022/09/09 07:03:31;;;;;;;10.73;2.22;;;;;;;17.32;85.39;100695.03;4997472;28;20417;-73
2022/09/09 07:05:57;;;;;;;7.50;1.70;;;;;;;17.48;85.51;100699.31;5020460;28;20237;-73
2022/09/09 07:08:24;;;;;;;8.43;1.55;;;;;;;17.60;85.45;100698.41;5019141;28;20041;-73
2022/09/09 07:10:51;;;;;;;9.82;1.92;;;;;;;17.62;84.73;100696.69;5015444;28;20072;-74
2022/09/09 07:13:16;;;;;;;11.77;1.90;;;;;;;17.74;83.68;100693.19;5003391;28;20037;-74
2022/09/09 07:15:42;;;;;;;7.93;1.63;;;;;;;17.75;83.49;100693.19;5013351;28;20563;-74
2022/09/09 07:18:09;;;;;;;12.15;1.65;;;;;;;17.77;82.52;100695.78;5010911;28;20041;-73
2022/09/09 07:20:35;;;;;;;10.55;1.73;;;;;;;17.78;82.32;100692.31;5013363;28;20029;-73
2022/09/09 07:23:00;;;;;;;7.82;1.98;;;;;;;17.76;84.05;100683.66;5014563;28;20386;-72
2022/09/09 07:25:29;;;;;;;9.82;1.67;;;;;;;17.85;82.37;100691.41;5012777;28;20044;-72
2022/09/09 07:27:56;;;;;;;9.05;2.10;;;;;;;17.79;81.02;100681.03;5017677;28;20068;-73
2022/09/09 07:30:21;;;;;;;7.47;2.05;;;;;;;17.81;83.01;100687.09;5016152;28;20542;-72
2022/09/09 07:32:47;;;;;;;8.82;1.90;;;;;;;17.85;82.93;100681.00;4992031;28;20049;-72
2022/09/09 07:35:12;;;;;;;10.15;1.60;;;;;;;17.87;81.54;100684.47;5019204;28;20108;-71
2022/09/09 07:37:38;;;;;;;9.35;1.65;;;;;;;17.85;82.47;100683.63;5015980;28;20041;-71
2022/09/09 07:40:05;;;;;;;5.75;1.58;;;;;;;17.88;81.61;100683.59;5018194;28;20029;-72
2022/09/09 07:42:30;;;;;;;10.68;1.75;;;;;;;17.85;82.93;100689.69;5019389;28;20048;-71
2022/09/09 07:44:56;;;;;;;7.57;1.75;;;;;;;17.80;81.28;100696.63;5021054;28;20017;-71
2022/09/09 07:47:21;;;;;;;7.90;1.85;;;;;;;17.81;82.06;100697.50;5017331;28;20044;-72
2022/09/09 07:49:49;;;;;;;10.43;1.88;;;;;;;17.75;81.87;100698.38;5014429;28;20032;-72
2022/09/09 07:52:15;;;;;;;9.43;1.67;;;;;;;17.77;81.59;100691.44;5016905;28;20102;-71
2022/09/09 07:54:40;;;;;;;7.65;1.67;;;;;;;17.67;83.59;100693.19;4999401;28;20044;-71
2022/09/09 07:57:06;;;;;;;10.07;1.77;;;;;;;17.74;83.08;100691.47;5016907;28;20030;-71
2022/09/09 07:59:31;;;;;;;9.13;1.40;;;;;;;17.74;81.81;100693.19;5013427;28;20040;-71
2022/09/09 08:01:58;;;;;;;8.60;1.70;;;;;;;17.78;81.37;100695.78;4998245;28;20030;-72
2022/09/09 08:04:25;;;;;;;9.20;2.15;;;;;;;17.78;82.38;100695.78;5017761;28;20033;-71
2022/09/09 08:06:57;;;;;;;7.65;1.80;;;;;;;17.81;80.93;100687.94;5010730;28;20072;-71
2022/09/09 08:09:26;;;;;;;9.75;1.73;;;;;;;17.78;80.56;100693.19;5002807;28;20064;-71
2022/09/09 08:11:52;;;;;;;5.55;1.40;;;;;;;17.75;80.38;100690.59;4995800;28;20112;-70
2022/09/09 08:14:18;;;;;;;5.70;1.65;;;;;;;17.81;80.54;100697.50;4998804;28;20120;-71
2022/09/09 08:16:49;;;;;;;8.68;1.50;;;;;;;17.79;81.17;100702.72;5016323;28;20033;-71
2022/09/09 08:19:17;;;;;;;9.35;1.83;;;;;;;17.79;79.88;100700.13;5020501;28;20029;-72
2022/09/09 08:21:44;;;;;;;11.60;2.08;;;;;;;17.78;81.03;100700.13;5013668;28;20511;-71
2022/09/09 08:24:10;;;;;;;6.55;1.50;;;;;;;17.75;80.39;100705.31;5015452;28;20440;-71
2022/09/09 08:26:41;;;;;;;9.10;1.67;;;;;;;17.75;80.86;100707.94;5009266;28;20087;-70
2022/09/09 08:29:09;;;;;;;7.10;1.45;;;;;;;17.75;79.76;100707.94;5015628;28;20038;-70
2022/09/09 08:31:52;;;;;;;8.77;1.65;;;;;;;17.83;81.31;100706.16;5014171;28;20053;-69
2022/09/09 08:34:19;;;;;;;8.02;1.63;;;;;;;17.85;82.21;100707.03;5014544;28;20167;-70
2022/09/09 08:36:47;;;;;;;5.97;1.70;;;;;;;17.84;83.46;100702.69;5015324;28;20065;-69
2022/09/09 08:39:15;;;;;;;9.57;1.85;;;;;;;17.91;82.18;100715.66;5012181;28;20029;-69
2022/09/09 08:41:41;;;;;;;7.60;1.92;;;;;;;17.90;83.07;100705.28;5014646;28;20021;-70
2022/09/09 08:44:15;;;;;;;9.90;1.80;;;;;;;17.97;80.71;100706.97;5012752;28;20445;-71
2022/09/09 08:47:15;;;;;;;7.22;1.52;;;;;;;18.01;80.11;100716.47;5015278;28;20057;-72
2022/09/09 08:49:59;;;;;;;8.02;1.40;;;;;;;17.98;79.38;100711.28;4998330;28;20643;-71
2022/09/09 08:52:59;;;;;;;6.57;1.58;;;;;;;18.00;80.48;100719.94;4997061;28;20080;-71
2022/09/09 08:55:28;;;;;;;6.32;1.75;;;;;;;17.95;81.11;100711.28;5014408;28;20029;-71
2022/09/09 08:57:55;;;;;;;8.00;1.50;;;;;;;17.89;78.21;100729.53;5017350;28;20108;-72
2022/09/09 09:00:24;;;;;;;7.45;1.42;;;;;;;17.90;79.71;100723.47;4999934;28;20033;-71
2022/09/09 09:03:19;;;;;;;9.50;1.97;;;;;;;17.95;80.52;100732.09;5015949;28;20053;-71
2022/09/09 09:05:58;;;;;;;7.05;1.80;;;;;;;17.92;80.16;100725.19;5014563;28;20296;-71
2022/09/09 09:08:55;;;;;;;8.63;2.05;;;;;;;17.97;79.81;100730.38;5018256;28;20025;-71
2022/09/09 09:11:22;;;;;;;11.88;2.08;;;;;;;17.92;80.50;100726.94;4997963;28;20057;-71
2022/09/09 09:14:23;;;;;;;12.40;1.85;;;;;;;17.97;80.24;100724.31;5019339;28;20103;-71
2022/09/09 09:17:01;;;;;;;10.88;1.90;;;;;;;17.97;80.72;100730.38;5017620;28;20480;-69
2022/09/09 09:19:28;;;;;;;6.10;1.77;;;;;;;17.94;79.65;100727.78;5020664;28;20061;-66
2022/09/09 09:22:04;;;;;;;9.38;1.65;;;;;;;17.97;79.66;100740.78;5016434;28;20037;-66
2022/09/09 09:24:49;;;;;;;9.45;1.40;;;;;;;17.99;79.98;100736.44;5020817;28;20037;-65
2022/09/09 09:27:37;;;;;;;6.00;1.45;;;;;;;17.99;80.23;100725.16;5017107;28;20025;-66
2022/09/09 09:30:14;;;;;;;9.65;1.60;;;;;;;18.04;78.80;100736.44;5008777;28;20178;-66
2022/09/09 09:32:48;;;;;;;8.80;1.73;;;;;;;18.00;79.73;100727.75;5022376;28;20083;-66
2022/09/09 09:35:13;;;;;;;7.40;1.60;;;;;;;18.00;79.36;100730.34;5018148;28;20033;-66
2022/09/09 09:37:41;;;;;;;7.63;1.42;;;;;;;17.99;78.72;100731.22;5019808;28;20037;-66
2022/09/09 09:40:13;;;;;;;7.50;1.60;;;;;;;18.04;80.10;100729.47;5021409;28;20029;-66
2022/09/09 09:42:54;;;;;;;6.55;1.45;;;;;;;18.05;78.82;100735.53;5005367;28;20057;-66
2022/09/09 09:45:33;;;;;;;6.85;1.38;;;;;;;18.06;79.41;100729.47;5019504;28;20488;-66
2022/09/09 09:48:05;;;;;;;10.93;1.67;;;;;;;18.08;79.19;100732.91;5018874;28;20052;-66
2022/09/09 09:50:32;;;;;;;8.68;1.60;;;;;;;18.05;78.55;100730.34;5019471;28;20033;-65
2022/09/09 09:53:00;;;;;;;5.82;1.30;;;;;;;18.09;79.56;100727.72;5013213;28;20535;-66
2022/09/09 09:55:31;;;;;;;5.85;1.30;;;;;;;18.09;78.82;100732.06;5019494;28;20022;-66
2022/09/09 09:58:06;;;;;;;7.43;1.40;;;;;;;18.12;78.93;100737.25;5015639;28;20037;-65
2022/09/09 10:00:34;;;;;;;5.38;1.58;;;;;;;18.11;78.43;100727.72;5020456;28;20025;-65
2022/09/09 10:03:00;;;;;;;9.80;1.88;;;;;;;18.06;79.11;100725.13;5017084;28;20454;-65
2022/09/09 10:05:31;;;;;;;7.95;1.58;;;;;;;18.13;78.51;100734.63;5019476;28;20089;-66
2022/09/09 10:08:13;;;;;;;9.63;1.35;;;;;;;18.16;79.25;100737.22;5016403;28;20033;-65
2022/09/09 10:10:57;;;;;;;8.85;1.85;;;;;;;18.19;80.30;100732.00;5018123;28;20038;-65
2022/09/09 10:13:23;;;;;;;8.02;1.65;;;;;;;18.09;79.54;100739.88;4999398;28;20048;-65
2022/09/09 10:16:18;;;;;;;6.35;1.30;;;;;;;18.14;81.11;100735.47;5021003;28;20029;-65
2022/09/09 10:18:52;;;;;;;8.32;1.95;;;;;;;18.09;81.92;100745.94;5016854;28;20091;-64
2022/09/09 10:21:36;;;;;;;12.93;1.85;;;;;;;18.05;82.57;100732.94;5019349;28;20030;-65
2022/09/09 10:24:35;;;;;;;6.82;1.67;;;;;;;18.04;83.40;100744.22;5021328;28;20061;-65
2022/09/09 10:27:00;;;;;;;;;;;;;;;18.21;81.91;100739.81;4982416;28;20512;-66
2022/09/09 10:29:56;;;;;;;9.48;1.73;;;;;;;18.16;83.82;100751.97;5019093;28;19956;-66
2022/09/09 10:32:25;;;;;;;6.97;1.60;;;;;;;18.10;84.38;100747.66;5019331;28;20029;-66
2022/09/09 10:34:56;;;;;;;10.23;2.10;;;;;;;18.14;84.42;100748.50;5019265;28;20025;-66
2022/09/09 10:37:32;;;;;;;7.80;1.80;;;;;;;18.12;83.27;100745.91;5020491;28;20535;-66
2022/09/09 10:40:21;;;;;;;7.57;1.70;;;;;;;18.10;83.48;100742.47;5018489;28;20051;-66
2022/09/09 10:42:46;;;;;;;10.98;1.80;;;;;;;18.03;83.36;100752.91;5007634;28;20044;-68
2022/09/09 10:45:48;;;;;;;9.07;1.83;;;;;;;18.10;83.04;100747.66;4999780;28;20033;-68
2022/09/09 10:48:35;;;;;;;9.63;1.92;;;;;;;18.01;83.55;100746.81;5004496;28;20050;-75
2022/09/09 10:51:14;;;;;;;5.93;1.45;;;;;;;17.95;83.70;100747.72;5017901;28;20057;-74
2022/09/09 10:53:53;;;;;;;8.38;1.73;;;;;;;18.00;83.73;100745.97;5019077;28;20111;-75
2022/09/09 10:56:21;;;;;;;5.47;1.60;;;;;;;17.99;84.23;100744.25;5020064;28;20033;-75
2022/09/09 10:59:06;;;;;;;6.50;1.50;;;;;;;18.00;84.61;100742.50;5020884;28;20021;-75
2022/09/09 11:02:05;;;;;;;7.70;1.85;;;;;;;18.06;84.44;100748.53;5020507;28;20030;-74
2022/09/09 11:04:48;;;;;;;9.82;1.77;;;;;;;18.03;84.56;100735.56;5020060;28;20040;-75
2022/09/09 11:07:24;;;;;;;8.25;1.85;;;;;;;18.02;85.06;100728.63;4997486;28;20049;-75
2022/09/09 11:09:58;;;;;;;8.98;1.63;;;;;;;18.04;84.49;100741.63;4998706;28;20033;-74
2022/09/09 11:12:24;;;;;;;9.50;2.40;;;;;;;17.98;85.45;100747.72;5013275;28;20120;-76
2022/09/09 11:15:02;;;;;;;8.88;1.85;;;;;;;18.03;84.73;100742.50;5018216;28;20032;-75
2022/09/09 11:17:50;;;;;;;8.25;1.60;;;;;;;18.07;84.98;100739.84;5019525;28;20544;-71
2022/09/09 11:20:16;;;;;;;9.63;1.90;;;;;;;18.05;84.64;100733.81;5015676;28;20100;-71
2022/09/09 11:22:47;;;;;;;8.00;1.60;;;;;;;18.10;84.65;100741.59;5015426;28;20058;-70
2022/09/09 11:25:28;;;;;;;4.85;1.40;;;;;;;18.15;85.27;100747.66;5016108;28;20065;-70
2022/09/09 11:28:22;;;;;;;6.43;1.70;;;;;;;18.17;85.24;100744.16;5018669;28;20021;-71
2022/09/09 11:31:22;;;;;;;6.60;1.42;;;;;;;18.25;84.36;100745.84;5015000;28;20025;-71
2022/09/09 11:34:18;;;;;;;6.30;1.70;;;;;;;18.29;84.72;100738.03;5015748;28;20241;-71
2022/09/09 11:37:05;;;;;;;7.22;2.10;;;;;;;18.25;85.74;100740.63;5016917;28;20029;-71
2022/09/09 11:39:30;;;;;;;4.07;1.80;;;;;;;18.27;85.49;100738.91;5018084;28;20063;-71
2022/09/09 11:42:13;;;;;;;5.75;1.20;;;;;;;18.30;84.47;100744.09;5017595;28;20075;-71
2022/09/09 11:44:40;;;;;;;4.43;1.50;;;;;;;18.24;84.87;100734.56;5014294;28;20052;-71
2022/09/09 11:47:18;;;;;;;6.60;1.40;;;;;;;18.27;84.93;100731.13;5018944;28;20029;-71